createdAt,value
2018-07-12T00:02:26.254Z,98052.31
2018-07-12T00:04:53.965Z,98048.00
2018-07-12T00:07:21.687Z,98044.85
2018-07-12T00:09:49.420Z,98038.88
2018-07-12T00:12:17.128Z,98038.18
2018-07-12T00:14:44.904Z,98038.45
2018-07-12T00:17:12.618Z,98041.67
2018-07-12T00:19:40.318Z,98038.58
2018-07-12T00:22:08.044Z,98035.57
2018-07-12T00:24:35.796Z,98033.36
2018-07-12T00:27:03.488Z,98039.55
2018-07-12T00:29:31.232Z,98049.68
2018-07-12T00:31:58.956Z,98052.71
2018-07-12T00:34:26.696Z,98048.27
2018-07-12T00:36:55.071Z,98047.10
2018-07-12T00:39:22.767Z,98043.77
2018-07-12T00:41:50.558Z,98041.35
2018-07-12T00:44:18.304Z,98043.83
2018-07-12T00:46:46.046Z,98045.55
2018-07-12T00:49:13.739Z,98051.67
2018-07-12T00:51:41.467Z,98053.10
2018-07-12T00:54:09.179Z,98052.19
2018-07-12T00:56:36.911Z,98062.00
2018-07-12T00:59:04.625Z,98053.88
2018-07-12T01:01:32.348Z,98059.05
2018-07-12T01:04:00.045Z,98057.77
2018-07-12T01:06:27.781Z,98057.81
2018-07-12T01:08:55.486Z,98055.17
2018-07-12T01:11:23.208Z,98050.08
2018-07-12T01:13:51.152Z,98056.59
2018-07-12T01:16:18.865Z,98057.16
2018-07-12T01:18:46.590Z,98054.64
2018-07-12T01:21:14.308Z,98061.14
2018-07-12T01:23:42.013Z,98056.06
2018-07-12T01:26:09.721Z,98055.27
2018-07-12T01:28:37.568Z,98062.58
2018-07-12T01:31:05.279Z,98054.05
2018-07-12T01:33:32.984Z,98056.31
2018-07-12T01:36:00.729Z,98057.59
2018-07-12T01:38:28.439Z,98058.16
2018-07-12T01:40:56.143Z,98059.44
2018-07-12T01:43:23.855Z,98054.28
2018-07-12T01:45:51.660Z,98046.55
2018-07-12T01:48:19.400Z,98059.10
2018-07-12T01:50:47.116Z,98060.85
2018-07-12T01:53:14.831Z,98060.58
2018-07-12T01:55:42.535Z,98061.19
2018-07-12T01:58:10.248Z,98063.89
2018-07-12T02:00:38.062Z,98067.02
2018-07-12T02:03:05.767Z,98064.14
2018-07-12T02:05:33.556Z,98059.10
2018-07-12T02:08:01.493Z,98066.78
2018-07-12T02:10:29.356Z,98063.73
2018-07-12T02:12:57.266Z,98070.63
2018-07-12T02:15:24.972Z,98065.92
2018-07-12T02:17:52.690Z,98068.05
2018-07-12T02:20:20.455Z,98071.02
2018-07-12T02:22:48.172Z,98074.48
2018-07-12T02:25:15.913Z,98064.33
2018-07-12T02:27:43.700Z,98068.36
2018-07-12T02:30:11.374Z,98065.34
2018-07-12T02:32:39.072Z,98065.88
2018-07-12T02:35:06.887Z,98070.23
2018-07-12T02:37:34.542Z,98071.65
2018-07-12T02:40:02.501Z,98078.16
2018-07-12T02:42:30.216Z,98071.20
2018-07-12T02:44:57.911Z,98068.19
2018-07-12T02:47:25.632Z,98071.24
2018-07-12T02:49:53.356Z,98069.08
2018-07-12T02:52:21.061Z,98061.44
2018-07-12T02:54:48.760Z,98071.42
2018-07-12T02:57:16.488Z,98068.04
2018-07-12T02:59:44.193Z,98070.22
2018-07-12T03:02:11.912Z,98067.73
2018-07-12T03:04:39.631Z,98081.03
2018-07-12T03:07:07.342Z,98082.31
2018-07-12T03:09:35.055Z,98077.20
2018-07-12T03:12:02.780Z,98077.65
2018-07-12T03:14:30.490Z,98076.04
2018-07-12T03:16:58.188Z,98077.20
2018-07-12T03:19:25.912Z,98077.57
2018-07-12T03:21:53.902Z,98073.39
2018-07-12T03:24:21.637Z,98074.56
2018-07-12T03:26:49.443Z,98076.61
2018-07-12T03:29:17.137Z,98080.42
2018-07-12T03:31:44.852Z,98083.84
2018-07-12T03:34:12.557Z,98079.98
2018-07-12T03:36:40.288Z,98082.43
2018-07-12T03:39:08.028Z,98075.95
2018-07-12T03:41:35.740Z,98079.94
2018-07-12T03:44:03.515Z,98085.31
2018-07-12T03:46:31.233Z,98082.03
2018-07-12T03:48:59.012Z,98081.55
2018-07-12T03:51:26.715Z,98082.62
2018-07-12T03:53:54.420Z,98085.27
2018-07-12T03:56:22.391Z,98085.15
2018-07-12T03:58:50.091Z,98085.50
2018-07-12T04:01:17.840Z,98081.55
2018-07-12T04:03:45.549Z,98087.68
2018-07-12T04:06:13.265Z,98085.68
2018-07-12T04:08:41.129Z,98084.83
2018-07-12T04:11:08.831Z,98082.17
2018-07-12T04:13:36.772Z,98087.68
2018-07-12T04:16:06.047Z,98083.28
2018-07-12T04:18:33.755Z,98084.80
2018-07-12T04:21:01.484Z,98081.69
2018-07-12T04:23:29.192Z,98087.13
2018-07-12T04:25:56.915Z,98083.14
2018-07-12T04:28:24.629Z,98084.39
2018-07-12T04:30:52.359Z,98089.85
2018-07-12T04:33:20.270Z,98089.85
2018-07-12T04:35:47.976Z,98098.02
2018-07-12T04:38:15.700Z,98098.20
2018-07-12T04:40:43.403Z,98100.24
2018-07-12T04:43:11.108Z,98104.36
2018-07-12T04:45:38.828Z,98098.02
2018-07-12T04:48:06.531Z,98100.64
2018-07-12T04:50:34.256Z,98103.08
2018-07-12T04:53:01.958Z,98102.54
2018-07-12T04:55:29.660Z,98096.45
2018-07-12T04:57:57.445Z,98103.84
2018-07-12T05:00:25.149Z,98102.50
2018-07-12T05:02:52.865Z,98101.27
2018-07-12T05:05:20.577Z,98109.58
2018-07-12T05:07:48.340Z,98111.63
2018-07-12T05:10:16.060Z,98109.97
2018-07-12T05:12:43.760Z,98108.17
2018-07-12T05:15:11.479Z,98112.09
2018-07-12T05:17:39.197Z,98106.77
2018-07-12T05:20:06.893Z,98103.63
2018-07-12T05:22:34.619Z,98102.91
2018-07-12T05:25:02.523Z,98112.33
2018-07-12T05:27:30.240Z,98117.87
2018-07-12T05:29:57.943Z,98115.12
2018-07-12T05:32:25.652Z,98116.75
2018-07-12T05:34:53.368Z,98115.34
2018-07-12T05:37:22.672Z,98119.88
2018-07-12T05:39:51.997Z,98116.64
2018-07-12T05:42:21.312Z,98118.55
2018-07-12T05:44:50.623Z,98122.70
2018-07-12T05:47:20.015Z,98118.59
2018-07-12T05:49:49.327Z,98122.33
2018-07-12T05:52:18.664Z,98126.52
2018-07-12T05:54:48.013Z,98129.20
2018-07-12T05:57:17.347Z,98127.97
2018-07-12T05:59:46.769Z,98129.39
2018-07-12T06:02:22.863Z,98128.52
2018-07-12T06:04:52.250Z,98126.41
2018-07-12T06:07:26.780Z,98128.80
2018-07-12T06:09:56.109Z,98131.18
2018-07-12T06:12:25.541Z,98129.78
2018-07-12T06:14:54.888Z,98141.30
2018-07-12T06:17:24.240Z,98142.98
2018-07-12T06:19:53.567Z,98142.92
2018-07-12T06:22:22.891Z,98143.03
2018-07-12T06:24:52.260Z,98149.67
2018-07-12T06:27:21.609Z,98147.58
2018-07-12T06:29:50.981Z,98141.34
2018-07-12T06:32:20.299Z,98147.49
2018-07-12T06:34:49.631Z,98156.48
2018-07-12T06:37:19.040Z,98153.86
2018-07-12T06:39:48.278Z,98155.43
2018-07-12T06:42:17.665Z,98151.78
2018-07-12T06:44:47.071Z,98152.62
2018-07-12T06:47:16.405Z,98156.89
2018-07-12T06:49:45.708Z,98152.83
2018-07-12T06:52:15.168Z,98157.48
2018-07-12T06:54:44.500Z,98154.91
2018-07-12T06:57:13.848Z,98157.78
2018-07-12T06:59:43.231Z,98161.68
2018-07-12T07:02:12.563Z,98162.91
2018-07-12T07:04:41.872Z,98161.05
2018-07-12T07:07:11.844Z,98163.63
2018-07-12T07:09:41.184Z,98164.19
2018-07-12T07:12:10.514Z,98164.63
2018-07-12T07:14:39.929Z,98166.78
2018-07-12T07:17:09.329Z,98165.43
2018-07-12T07:19:38.662Z,98167.61
2018-07-12T07:22:08.028Z,98173.75
2018-07-12T07:24:37.467Z,98172.71
2018-07-12T07:27:07.008Z,98176.69
2018-07-12T07:29:36.332Z,98182.42
2018-07-12T07:32:05.755Z,98182.09
2018-07-12T07:34:36.067Z,98185.37
2018-07-12T07:37:05.563Z,98185.17
2018-07-12T07:39:34.667Z,98185.70
2018-07-12T07:42:03.802Z,98189.14
2018-07-12T07:44:33.156Z,98185.56
2018-07-12T07:47:02.496Z,98180.89
2018-07-12T07:49:31.835Z,98179.73
2018-07-12T07:52:01.306Z,98178.14
2018-07-12T07:54:30.603Z,98176.11
2018-07-12T07:57:00.003Z,98170.73
2018-07-12T07:59:29.280Z,98168.64
2018-07-12T08:01:58.624Z,98169.88
2018-07-12T08:04:27.936Z,98171.83
2018-07-12T08:06:57.257Z,98171.56
2018-07-12T08:09:26.638Z,98182.16
2018-07-12T08:11:55.908Z,98181.28
2018-07-12T08:14:25.236Z,98177.66
2018-07-12T08:16:54.548Z,98185.11
2018-07-12T08:19:23.901Z,98181.92
2018-07-12T08:22:03.864Z,98191.77
2018-07-12T08:24:33.468Z,98193.63
2018-07-12T08:27:03.077Z,98193.13
2018-07-12T08:29:33.108Z,98183.81
2018-07-12T08:32:03.737Z,98188.09
2018-07-12T08:34:33.321Z,98187.33
2018-07-12T08:37:02.804Z,98189.35
2018-07-12T08:39:32.073Z,98185.06
2018-07-12T08:42:01.384Z,98187.72
2018-07-12T08:44:30.756Z,98186.86
2018-07-12T08:47:00.064Z,98181.88
2018-07-12T08:49:29.392Z,98185.63
2018-07-12T08:51:58.697Z,98188.91
2018-07-12T08:54:28.080Z,98188.07
2018-07-12T08:56:57.410Z,98184.03
2018-07-12T08:59:26.796Z,98192.55
2018-07-12T09:01:56.263Z,98193.11
2018-07-12T09:04:25.571Z,98202.60
2018-07-12T09:06:54.891Z,98193.53
2018-07-12T09:09:24.212Z,98196.34
2018-07-12T09:11:53.568Z,98196.98
2018-07-12T09:14:22.877Z,98198.12
2018-07-12T09:16:52.208Z,98193.64
2018-07-12T09:19:21.520Z,98192.29
2018-07-12T09:21:50.883Z,98200.32
2018-07-12T09:24:20.372Z,98194.37
2018-07-12T09:26:49.743Z,98201.53
2018-07-12T09:29:19.179Z,98208.19
2018-07-12T09:31:48.439Z,98194.27
2018-07-12T09:34:17.539Z,98203.08
2018-07-12T09:36:47.091Z,98203.94
2018-07-12T09:39:16.408Z,98200.30
2018-07-12T09:41:45.775Z,98193.41
2018-07-12T09:44:15.081Z,98197.45
2018-07-12T09:46:44.399Z,98198.27
2018-07-12T09:49:13.916Z,98205.16
2018-07-12T09:51:43.141Z,98199.63
2018-07-12T09:54:12.457Z,98202.63
2018-07-12T09:56:52.807Z,98196.76
2018-07-12T09:59:22.162Z,98205.47
2018-07-12T10:01:56.881Z,98203.50
2018-07-12T10:04:27.763Z,98209.37
2018-07-12T10:09:40.932Z,98205.73
2018-07-12T10:12:11.327Z,98209.75
2018-07-12T10:14:45.849Z,98208.84
2018-07-12T10:17:20.489Z,98212.00
2018-07-12T10:19:49.828Z,98215.55
2018-07-12T10:22:19.168Z,98223.23
2018-07-12T10:24:48.487Z,98222.58
2018-07-12T10:27:17.815Z,98223.80
2018-07-12T10:29:47.203Z,98225.11
2018-07-12T10:32:16.458Z,98222.12
2018-07-12T10:34:46.045Z,98209.81
2018-07-12T10:37:15.359Z,98211.09
2018-07-12T10:39:44.685Z,98213.97
2018-07-12T10:42:14.107Z,98216.98
2018-07-12T10:44:43.716Z,98221.02
2018-07-12T10:47:13.057Z,98219.97
2018-07-12T10:49:42.373Z,98218.26
2018-07-12T10:52:11.675Z,98221.44
2018-07-12T10:54:40.992Z,98228.36
2018-07-12T10:57:10.351Z,98226.12
2018-07-12T10:59:39.396Z,98219.48
2018-07-12T11:02:08.712Z,98216.54
2018-07-12T11:04:38.219Z,98215.66
2018-07-12T11:07:07.503Z,98212.02
2018-07-12T11:09:36.828Z,98211.18
2018-07-12T11:12:06.211Z,98204.05
2018-07-12T11:14:35.521Z,98207.59
2018-07-12T11:17:04.917Z,98206.39
2018-07-12T11:19:34.356Z,98208.06
2018-07-12T11:22:03.723Z,98206.68
2018-07-12T11:24:33.149Z,98210.03
2018-07-12T11:27:02.464Z,98213.59
2018-07-12T11:29:49.409Z,98214.18
2018-07-12T11:32:19.207Z,98212.69
2018-07-12T11:34:48.556Z,98204.72
2018-07-12T11:37:26.216Z,98202.48
2018-07-12T11:39:55.629Z,98192.45
2018-07-12T11:42:25.016Z,98190.66
2018-07-12T11:44:54.325Z,98195.45
2018-07-12T11:47:23.661Z,98201.87
2018-07-12T11:49:52.990Z,98205.09
2018-07-12T11:52:22.075Z,98208.54
2018-07-12T11:54:51.434Z,98203.42
2018-07-12T11:57:20.699Z,98201.06
2018-07-12T11:59:50.017Z,98200.80
2018-07-12T12:02:19.415Z,98198.11
2018-07-12T12:04:48.751Z,98207.20
2018-07-12T12:07:18.580Z,98203.64
2018-07-12T12:09:47.935Z,98205.62
2018-07-12T12:12:18.272Z,98212.13
2018-07-12T12:14:47.627Z,98210.63
2018-07-12T12:17:16.965Z,98203.30
2018-07-12T12:19:46.359Z,98193.88
2018-07-12T12:22:15.670Z,98198.90
2018-07-12T12:24:45.069Z,98193.66
2018-07-12T12:27:14.378Z,98192.23
2018-07-12T12:29:43.788Z,98194.30
2018-07-12T12:32:13.096Z,98191.17
2018-07-12T12:34:42.433Z,98193.73
2018-07-12T12:37:11.813Z,98189.78
2018-07-12T12:39:41.131Z,98193.91
2018-07-12T12:42:10.506Z,98192.41
2018-07-12T12:44:39.836Z,98191.44
2018-07-12T12:47:09.176Z,98185.55
2018-07-12T12:49:38.495Z,98175.76
2018-07-12T12:52:07.881Z,98180.86
2018-07-12T12:54:37.188Z,98181.28
2018-07-12T12:57:06.513Z,98173.00
2018-07-12T12:59:35.883Z,98171.81
2018-07-12T13:02:05.294Z,98172.95
2018-07-12T13:04:34.612Z,98170.87
2018-07-12T13:07:03.941Z,98168.87
2018-07-12T13:09:33.251Z,98169.33
2018-07-12T13:12:02.653Z,98173.77
2018-07-12T13:14:31.966Z,98168.52
2018-07-12T13:17:01.304Z,98156.16
2018-07-12T13:19:30.644Z,98155.87
2018-07-12T13:22:00.200Z,98156.91
2018-07-12T13:24:29.532Z,98160.33
2018-07-12T13:26:59.257Z,98156.08
2018-07-12T13:29:28.579Z,98165.27
2018-07-12T13:31:57.993Z,98161.44
2018-07-12T13:34:27.279Z,98151.52
2018-07-12T13:36:56.613Z,98152.18
2018-07-12T13:39:25.972Z,98153.90
2018-07-12T13:41:55.336Z,98157.72
2018-07-12T13:44:25.427Z,98157.39
2018-07-12T13:46:55.657Z,98151.50
2018-07-12T13:49:24.989Z,98153.60
2018-07-12T13:51:54.393Z,98144.64
2018-07-12T13:54:23.772Z,98141.20
2018-07-12T13:56:53.083Z,98140.92
2018-07-12T13:59:22.463Z,98140.29
2018-07-12T14:01:51.867Z,98137.31
2018-07-12T14:04:21.275Z,98145.52
2018-07-12T14:06:50.617Z,98140.61
2018-07-12T14:09:19.963Z,98147.40
2018-07-12T14:11:49.331Z,98137.80
2018-07-12T14:14:18.643Z,98143.50
2018-07-12T14:16:48.080Z,98138.46
2018-07-12T14:19:17.421Z,98139.19
2018-07-12T14:21:46.791Z,98138.88
2018-07-12T14:24:16.167Z,98141.53
2018-07-12T14:26:45.483Z,98137.53
2018-07-12T14:29:14.817Z,98140.07
2018-07-12T14:31:44.161Z,98136.69
2018-07-12T14:34:13.563Z,98133.63
2018-07-12T14:36:42.949Z,98127.61
2018-07-12T14:39:12.267Z,98122.20
2018-07-12T14:41:41.584Z,98132.66
2018-07-12T14:44:10.932Z,98128.30
2018-07-12T14:46:40.256Z,98115.19
2018-07-12T14:49:09.580Z,98122.87
2018-07-12T14:51:38.932Z,98120.50
2018-07-12T14:54:08.256Z,98129.81
2018-07-12T14:56:37.580Z,98122.85
2018-07-12T14:59:06.963Z,98133.63
2018-07-12T15:01:36.335Z,98131.16
2018-07-12T15:04:05.619Z,98135.10
2018-07-12T15:06:34.998Z,98137.80
2018-07-12T15:09:05.270Z,98140.02
2018-07-12T15:11:34.528Z,98133.67
2018-07-12T15:14:03.939Z,98140.47
2018-07-12T15:16:33.265Z,98141.63
2018-07-12T15:19:03.042Z,98135.16
2018-07-12T15:21:32.304Z,98136.27
2018-07-12T15:24:01.681Z,98141.34
2018-07-12T15:26:31.047Z,98141.70
2018-07-12T15:29:00.348Z,98138.84
2018-07-12T15:31:29.753Z,98144.58
2018-07-12T15:33:59.035Z,98142.64
2018-07-12T15:36:28.407Z,98147.66
2018-07-12T15:38:57.728Z,98145.40
2018-07-12T15:41:27.044Z,98150.72
2018-07-12T15:43:56.145Z,98149.70
2018-07-12T15:46:25.458Z,98157.80
2018-07-12T15:48:54.775Z,98155.64
2018-07-12T15:51:24.108Z,98161.35
2018-07-12T15:53:53.420Z,98173.90
2018-07-12T15:56:22.741Z,98177.47
2018-07-12T15:58:52.350Z,98174.92
2018-07-12T16:01:21.427Z,98178.95
2018-07-12T16:03:50.756Z,98178.02
2018-07-12T16:06:20.108Z,98183.05
2018-07-12T16:08:49.443Z,98184.52
2018-07-12T16:11:18.768Z,98176.94
2018-07-12T16:13:48.154Z,98184.63
2018-07-12T16:16:17.451Z,98183.61
2018-07-12T16:18:46.769Z,98185.84
2018-07-12T16:21:16.086Z,98191.12
2018-07-12T16:23:45.413Z,98191.12
2018-07-12T16:26:14.771Z,98195.69
2018-07-12T16:28:44.139Z,98195.47
2018-07-12T16:31:13.516Z,98188.56
2018-07-12T16:33:42.832Z,98189.36
2018-07-12T16:36:12.144Z,98182.09
2018-07-12T16:38:41.491Z,98193.55
2018-07-12T16:41:10.803Z,98190.72
2018-07-12T16:43:40.133Z,98191.48
2018-07-12T16:46:09.449Z,98183.45
2018-07-12T16:48:38.825Z,98179.27
2018-07-12T16:51:08.147Z,98176.28
2018-07-12T16:53:37.803Z,98169.48
2018-07-12T16:56:07.377Z,98173.41
2018-07-12T16:58:36.803Z,98164.53
2018-07-12T17:01:06.313Z,98178.96
2018-07-12T17:03:35.640Z,98175.22
2018-07-12T17:06:04.997Z,98179.06
2018-07-12T17:08:34.352Z,98191.72
2018-07-12T17:11:03.700Z,98189.09
2018-07-12T17:13:33.071Z,98191.85
2018-07-12T17:16:02.392Z,98188.59
2018-07-12T17:18:31.704Z,98195.91
2018-07-12T17:21:01.048Z,98193.38
2018-07-12T17:23:30.397Z,98194.58
2018-07-12T17:25:59.684Z,98193.00
2018-07-12T17:28:29.028Z,98198.77
2018-07-12T17:30:58.422Z,98201.38
2018-07-12T17:33:27.897Z,98199.42
2018-07-12T17:35:57.174Z,98201.28
2018-07-12T17:38:26.520Z,98203.89
2018-07-12T17:40:55.850Z,98200.61
2018-07-12T17:43:25.156Z,98203.38
2018-07-12T17:45:54.521Z,98204.45
2018-07-12T17:48:23.858Z,98205.20
2018-07-12T17:50:53.229Z,98200.14
2018-07-12T17:53:22.646Z,98204.98
2018-07-12T17:55:51.980Z,98201.47
2018-07-12T17:58:21.331Z,98206.69
2018-07-12T18:00:50.673Z,98205.69
2018-07-12T18:03:21.943Z,98209.12
2018-07-12T18:05:51.297Z,98208.75
2018-07-12T18:08:20.622Z,98206.59
2018-07-12T18:10:49.950Z,98212.90
2018-07-12T18:13:19.284Z,98210.50
2018-07-12T18:15:48.636Z,98214.05
2018-07-12T18:18:18.021Z,98217.41
2018-07-12T18:20:47.380Z,98217.04
2018-07-12T18:23:16.873Z,98219.16
2018-07-12T18:25:46.242Z,98216.25
2018-07-12T18:28:15.601Z,98216.30
2018-07-12T18:30:44.954Z,98221.94
2018-07-12T18:33:14.291Z,98219.33
2018-07-12T18:35:43.675Z,98224.80
2018-07-12T18:38:13.024Z,98220.89
2018-07-12T18:40:42.361Z,98224.79
2018-07-12T18:43:12.985Z,98223.42
2018-07-12T18:45:42.445Z,98224.11
2018-07-12T18:49:39.601Z,98233.11
2018-07-12T18:52:10.060Z,98237.05
2018-07-12T18:54:39.767Z,98237.05
2018-07-12T18:57:09.162Z,98240.42
2018-07-12T18:59:38.684Z,98242.42
2018-07-12T19:02:08.573Z,98240.50
2018-07-12T19:04:38.063Z,98146.64
2018-07-12T19:07:07.847Z,98246.56
2018-07-12T19:09:37.722Z,98246.42
2018-07-12T19:12:07.926Z,98248.63
2018-07-12T19:14:37.886Z,98250.63
2018-07-12T19:17:07.949Z,98248.99
2018-07-12T19:19:38.175Z,98251.92
2018-07-12T19:22:07.810Z,98249.75
2018-07-12T19:24:37.630Z,98254.34
2018-07-12T19:27:07.404Z,98265.90
2018-07-12T19:29:37.041Z,98264.45
2018-07-12T19:32:08.214Z,98258.42
2018-07-12T19:34:39.584Z,98266.65
2018-07-12T19:37:10.064Z,98272.44
2018-07-12T19:39:39.830Z,98275.75
2018-07-12T19:42:09.477Z,98281.56
2018-07-12T19:44:39.332Z,98280.08
2018-07-12T19:47:09.167Z,98285.92
2018-07-12T19:49:39.810Z,98281.08
2018-07-12T19:52:09.777Z,98284.34
2018-07-12T19:54:40.534Z,98289.45
2018-07-12T19:57:10.217Z,98295.38
2018-07-12T19:59:40.780Z,98292.19
2018-07-12T20:02:11.032Z,98293.87
2018-07-12T20:04:42.611Z,98298.92
2018-07-12T20:07:13.237Z,98296.82
2018-07-12T20:09:45.083Z,98302.50
2018-07-12T20:12:15.641Z,98294.84
2018-07-12T20:14:47.074Z,98292.02
2018-07-12T20:17:16.770Z,98297.82
2018-07-12T20:19:47.211Z,98296.14
2018-07-12T20:22:17.017Z,98297.23
2018-07-12T20:24:46.648Z,98297.77
2018-07-12T20:27:16.657Z,98299.82
2018-07-12T20:29:46.398Z,98297.30
2018-07-12T20:32:17.093Z,98300.23
2018-07-12T20:34:46.847Z,98308.75
2018-07-12T20:37:16.320Z,98311.62
2018-07-12T20:39:45.669Z,98310.08
2018-07-12T20:42:15.296Z,98312.99
2018-07-12T20:44:44.648Z,98311.48
2018-07-12T20:47:13.923Z,98314.25
2018-07-12T20:49:43.303Z,98317.66
2018-07-12T20:52:12.645Z,98311.86
2018-07-12T20:54:42.031Z,98312.02
2018-07-12T20:57:11.411Z,98316.69
2018-07-12T20:59:40.899Z,98321.38
2018-07-12T21:02:10.460Z,98320.72
2018-07-12T21:04:39.788Z,98329.70
2018-07-12T21:07:09.101Z,98330.24
2018-07-12T21:09:38.649Z,98326.55
2018-07-12T21:12:08.012Z,98337.51
2018-07-12T21:14:37.364Z,98333.61
2018-07-12T21:17:06.692Z,98336.02
2018-07-12T21:19:35.997Z,98336.52
2018-07-12T21:22:05.420Z,98332.34
2018-07-12T21:24:34.756Z,98331.88
2018-07-12T21:27:04.140Z,98336.63
2018-07-12T21:29:33.512Z,98337.05
2018-07-12T21:32:02.971Z,98339.00
2018-07-12T21:34:32.312Z,98331.96
2018-07-12T21:37:01.821Z,98330.63
2018-07-12T21:39:31.136Z,98332.04
2018-07-12T21:42:00.510Z,98332.69
2018-07-12T21:44:29.929Z,98334.14
2018-07-12T21:46:59.328Z,98342.10
2018-07-12T21:49:28.652Z,98342.28
2018-07-12T21:51:58.082Z,98340.37
2018-07-12T21:54:27.496Z,98339.64
2018-07-12T21:56:56.899Z,98340.09
2018-07-12T21:59:26.229Z,98334.16
2018-07-12T22:01:55.572Z,98339.89
2018-07-12T22:04:24.915Z,98333.69
2018-07-12T22:07:12.935Z,98328.98
2018-07-12T22:09:42.249Z,98328.63
2018-07-12T22:12:11.556Z,98333.72
2018-07-12T22:14:40.884Z,98332.42
2018-07-12T22:17:10.208Z,98338.53
2018-07-12T22:19:39.548Z,98339.95
2018-07-12T22:22:08.863Z,98337.42
2018-07-12T22:24:38.241Z,98340.34
2018-07-12T22:27:07.544Z,98344.20
2018-07-12T22:29:36.875Z,98340.48
2018-07-12T22:32:06.379Z,98339.22
2018-07-12T22:34:35.687Z,98339.22
2018-07-12T22:37:05.025Z,98336.59
2018-07-12T22:39:34.464Z,98334.38
2018-07-12T22:42:03.789Z,98343.72
2018-07-12T22:44:33.094Z,98335.50
2018-07-12T22:47:02.442Z,98332.70
2018-07-12T22:49:31.757Z,98333.44
2018-07-12T22:52:01.076Z,98335.58
2018-07-12T22:54:30.448Z,98332.28
2018-07-12T22:56:59.763Z,98334.28
2018-07-12T22:59:29.084Z,98333.12
2018-07-12T23:01:58.390Z,98335.39
2018-07-12T23:04:27.826Z,98334.31
2018-07-12T23:06:57.203Z,98331.59
2018-07-12T23:09:26.476Z,98336.37
2018-07-12T23:11:55.807Z,98340.16
2018-07-12T23:14:25.162Z,98343.69
2018-07-12T23:16:54.420Z,98348.56
2018-07-12T23:19:24.677Z,98342.07
2018-07-12T23:21:53.967Z,98345.97
2018-07-12T23:24:23.300Z,98343.48
2018-07-12T23:26:52.887Z,98343.93
2018-07-12T23:29:22.199Z,98345.10
2018-07-12T23:31:51.548Z,98344.97
2018-07-12T23:34:20.879Z,98344.61
2018-07-12T23:36:50.319Z,98337.79
2018-07-12T23:39:19.671Z,98346.97
2018-07-12T23:41:48.707Z,98347.52
2018-07-12T23:44:18.060Z,98346.56
2018-07-12T23:46:47.537Z,98352.45
2018-07-12T23:49:16.923Z,98351.13
2018-07-12T23:51:46.417Z,98347.42
2018-07-12T23:54:15.713Z,98356.25
2018-07-12T23:56:45.043Z,98356.25
2018-07-12T23:59:14.408Z,98353.69
